createdAt,value
2022-10-12T00:00:02.820Z,16.50
2022-10-12T00:05:13.672Z,16.65
2022-10-12T00:10:15.372Z,18.80
2022-10-12T00:15:17.010Z,17.73
2022-10-12T00:20:18.519Z,18.65
2022-10-12T00:25:22.165Z,18.15
2022-10-12T00:30:23.662Z,20.40
2022-10-12T00:35:25.334Z,20.15
2022-10-12T00:40:26.874Z,20.65
2022-10-12T00:45:28.585Z,18.52
2022-10-12T00:50:33.984Z,18.63
2022-10-12T00:55:40.361Z,19.83
2022-10-12T01:00:42.951Z,21.02
2022-10-12T01:05:44.766Z,21.08
2022-10-12T01:10:46.267Z,20.52
2022-10-12T01:16:26.431Z,19.63
2022-10-12T01:21:28.561Z,17.85
2022-10-12T01:26:48.829Z,16.30
2022-10-12T01:32:01.898Z,16.25
2022-10-12T01:37:26.384Z,15.10
2022-10-12T01:42:31.630Z,14.85
2022-10-12T01:47:33.907Z,14.88
2022-10-12T01:52:45.552Z,14.50
2022-10-12T01:58:07.593Z,14.63
2022-10-12T02:03:51.868Z,15.07
2022-10-12T02:09:06.143Z,13.68
2022-10-12T02:14:25.946Z,13.98
2022-10-12T02:19:31.136Z,14.40
2022-10-12T02:24:39.391Z,12.93
2022-10-12T02:29:43.306Z,13.48
2022-10-12T02:34:56.769Z,12.45
2022-10-12T02:40:18.864Z,12.32
2022-10-12T02:45:24.523Z,11.95
2022-10-12T02:50:27.248Z,11.07
2022-10-12T02:55:30.669Z,11.02
2022-10-12T03:00:34.387Z,11.02
2022-10-12T03:05:35.960Z,10.50
2022-10-12T03:10:37.670Z,10.73
2022-10-12T03:15:41.573Z,10.23
2022-10-12T03:20:48.352Z,10.45
2022-10-12T03:25:49.971Z,10.85
2022-10-12T03:30:51.579Z,10.32
2022-10-12T03:35:53.380Z,10.32
2022-10-12T03:40:54.911Z,10.52
2022-10-12T03:45:58.938Z,11.85
2022-10-12T03:51:00.550Z,11.45
2022-10-12T03:56:02.074Z,11.65
2022-10-12T04:01:03.888Z,10.38
2022-10-12T04:06:05.799Z,10.68
2022-10-12T04:11:07.421Z,10.57
2022-10-12T04:16:09.776Z,11.88
2022-10-12T04:21:14.988Z,11.43
2022-10-12T04:26:16.738Z,11.40
2022-10-12T04:31:18.753Z,10.98
2022-10-12T04:36:20.294Z,9.50
2022-10-12T04:41:21.846Z,9.23
2022-10-12T04:46:23.397Z,9.07
2022-10-12T04:51:25.152Z,8.10
2022-10-12T04:56:26.711Z,7.68
2022-10-12T05:01:30.433Z,7.60
2022-10-12T05:06:32.333Z,6.70
2022-10-12T05:11:34.033Z,6.43
2022-10-12T05:16:35.648Z,6.15
2022-10-12T05:21:37.809Z,5.95
2022-10-12T05:26:39.496Z,5.72
2022-10-12T05:31:41.083Z,4.90
2022-10-12T05:36:42.621Z,5.22
2022-10-12T05:41:44.171Z,5.50
2022-10-12T05:46:45.708Z,6.68
2022-10-12T05:51:47.325Z,5.90
2022-10-12T05:56:48.909Z,7.32
2022-10-12T06:01:50.617Z,9.25
2022-10-12T06:06:52.212Z,10.38
2022-10-12T06:11:53.980Z,12.55
2022-10-12T06:16:55.542Z,11.95
2022-10-12T06:21:57.457Z,13.50
2022-10-12T06:26:58.992Z,14.10
2022-10-12T06:32:00.602Z,13.35
2022-10-12T06:37:04.001Z,12.32
2022-10-12T06:42:05.613Z,13.10
2022-10-12T06:47:07.139Z,13.60
2022-10-12T06:52:08.724Z,13.05
2022-10-12T06:57:10.297Z,11.75
2022-10-12T07:02:11.948Z,13.40
2022-10-12T07:07:13.510Z,13.57
2022-10-12T07:12:15.082Z,14.07
2022-10-12T07:17:17.351Z,12.02
2022-10-12T07:22:19.028Z,14.32
2022-10-12T07:27:20.623Z,13.63
2022-10-12T07:32:24.277Z,13.48
2022-10-12T07:37:27.611Z,16.02
2022-10-12T07:42:29.161Z,17.63
2022-10-12T07:47:30.756Z,14.52
2022-10-12T07:52:32.931Z,13.77
2022-10-12T07:57:35.674Z,14.25
2022-10-12T08:02:37.494Z,15.00
2022-10-12T08:07:41.736Z,14.77
2022-10-12T08:12:48.398Z,14.77
2022-10-12T08:17:52.604Z,13.87
2022-10-12T08:22:54.397Z,12.15
2022-10-12T08:27:55.916Z,13.23
2022-10-12T08:32:57.469Z,12.00
2022-10-12T08:37:59.004Z,12.02
2022-10-12T08:43:12.997Z,14.15
2022-10-12T08:48:20.538Z,12.60
2022-10-12T08:53:22.907Z,13.60
2022-10-12T08:58:37.902Z,11.98
2022-10-12T09:03:51.872Z,13.20
2022-10-12T09:09:31.346Z,12.05
2022-10-12T09:14:35.684Z,13.32
2022-10-12T09:19:41.112Z,9.80
2022-10-12T09:24:42.720Z,9.05
2022-10-12T09:29:57.491Z,9.73
2022-10-12T09:34:59.804Z,10.77
2022-10-12T09:40:01.910Z,9.82
2022-10-12T09:45:17.495Z,11.10
2022-10-12T09:50:39.882Z,11.52
2022-10-12T09:55:53.101Z,10.52
2022-10-12T10:01:21.366Z,11.27
2022-10-12T10:06:25.071Z,11.85
2022-10-12T10:11:31.426Z,10.00
2022-10-12T10:16:33.224Z,9.57
2022-10-12T10:21:38.242Z,10.00
2022-10-12T10:26:54.898Z,11.13
2022-10-12T10:32:23.620Z,9.52
2022-10-12T10:37:25.261Z,9.13
2022-10-12T10:42:32.711Z,10.10
2022-10-12T10:47:43.329Z,8.85
2022-10-12T10:52:55.386Z,8.98
2022-10-12T10:58:34.659Z,8.88
2022-10-12T11:04:04.440Z,8.23
2022-10-12T11:09:21.706Z,9.63
2022-10-12T11:14:31.118Z,7.80
2022-10-12T11:20:00.952Z,8.27
2022-10-12T11:25:25.649Z,8.50
2022-10-12T11:30:39.059Z,9.85
2022-10-12T11:35:44.119Z,9.25
2022-10-12T11:46:21.918Z,8.48
2022-10-12T11:51:23.506Z,8.50
2022-10-12T11:56:47.580Z,7.93
2022-10-12T12:02:07.600Z,7.00
2022-10-12T12:07:37.197Z,7.53
2022-10-12T12:13:14.673Z,6.85
2022-10-12T12:18:22.058Z,7.80
2022-10-12T12:23:32.603Z,6.68
2022-10-12T12:28:36.056Z,7.22
2022-10-12T12:33:42.119Z,7.60
2022-10-12T12:38:46.755Z,6.95
2022-10-12T12:44:03.907Z,6.60
2022-10-12T12:49:26.250Z,6.82
2022-10-12T12:54:35.961Z,5.93
2022-10-12T12:59:55.927Z,7.10
2022-10-12T13:05:21.721Z,5.32
2022-10-12T13:10:28.905Z,6.90
2022-10-12T13:16:04.808Z,6.18
2022-10-12T13:21:15.749Z,6.57
2022-10-12T13:26:28.073Z,7.75
2022-10-12T13:31:37.276Z,6.65
2022-10-12T13:36:58.184Z,6.83
2022-10-12T13:42:01.555Z,7.88
2022-10-12T13:47:21.771Z,6.95
2022-10-12T13:52:32.311Z,5.93
2022-10-12T13:57:42.627Z,6.82
2022-10-12T14:08:02.504Z,6.03
2022-10-12T14:13:05.089Z,6.00
2022-10-12T14:18:32.484Z,6.30
2022-10-12T14:23:34.085Z,6.18
2022-10-12T14:28:35.770Z,7.40
2022-10-12T14:33:37.373Z,8.45
2022-10-12T14:38:41.606Z,7.32
2022-10-12T14:43:43.127Z,7.00
2022-10-12T14:48:44.672Z,6.57
2022-10-12T14:53:46.175Z,6.70
2022-10-12T14:58:48.148Z,7.10
2022-10-12T15:03:49.709Z,6.30
2022-10-12T15:08:52.521Z,6.13
2022-10-12T15:13:54.059Z,6.32
2022-10-12T15:18:55.696Z,5.82
2022-10-12T15:23:57.319Z,5.38
2022-10-12T15:28:58.896Z,7.07
2022-10-12T15:34:00.480Z,6.90
2022-10-12T15:39:02.032Z,7.00
2022-10-12T15:44:03.704Z,7.15
2022-10-12T15:49:05.367Z,7.05
2022-10-12T15:54:07.196Z,6.90
2022-10-12T15:59:08.856Z,6.65
2022-10-12T16:04:14.592Z,7.00
2022-10-12T16:09:16.176Z,7.05
2022-10-12T16:14:17.754Z,6.85
2022-10-12T16:19:19.415Z,6.53
2022-10-12T16:24:20.973Z,6.30
2022-10-12T16:29:22.515Z,6.70
2022-10-12T16:34:24.021Z,5.88
2022-10-12T16:39:27.573Z,6.25
2022-10-12T16:44:29.179Z,7.03
2022-10-12T16:49:30.684Z,7.00
2022-10-12T16:54:32.776Z,6.75
2022-10-12T16:59:34.380Z,7.00
2022-10-12T17:04:35.954Z,7.60
2022-10-12T17:09:37.539Z,7.30
2022-10-12T17:14:39.071Z,8.40
2022-10-12T17:19:40.879Z,8.18
2022-10-12T17:24:42.793Z,8.05
2022-10-12T17:29:44.316Z,8.43
2022-10-12T17:34:45.950Z,8.88
2022-10-12T17:39:48.334Z,9.10
2022-10-12T17:44:50.104Z,10.23
2022-10-12T17:49:51.638Z,9.55
2022-10-12T17:54:53.197Z,10.60
2022-10-12T17:59:54.724Z,10.80
2022-10-12T18:04:56.240Z,10.38
2022-10-12T18:09:59.898Z,9.93
2022-10-12T18:15:01.801Z,10.90
2022-10-12T18:20:05.194Z,11.95
2022-10-12T18:25:07.238Z,11.63
2022-10-12T18:30:09.501Z,12.23
2022-10-12T18:35:11.045Z,11.20
2022-10-12T18:40:12.604Z,12.00
2022-10-12T18:45:14.441Z,12.13
2022-10-12T18:50:16.084Z,13.80
2022-10-12T18:55:17.639Z,12.93
2022-10-12T19:00:21.519Z,11.10
2022-10-12T19:05:24.602Z,14.20
2022-10-12T19:10:26.127Z,12.63
2022-10-12T19:15:28.541Z,15.15
2022-10-12T19:20:30.995Z,15.05
2022-10-12T19:25:37.261Z,15.80
2022-10-12T19:30:39.065Z,14.65
2022-10-12T19:35:40.696Z,14.05
2022-10-12T19:40:45.372Z,14.32
2022-10-12T19:45:46.924Z,13.60
2022-10-12T19:50:57.495Z,15.25
2022-10-12T19:56:07.832Z,12.75
2022-10-12T20:01:16.025Z,13.65
2022-10-12T20:06:19.964Z,12.90
2022-10-12T20:11:24.682Z,13.10
2022-10-12T20:16:28.992Z,13.02
2022-10-12T20:21:32.754Z,14.55
2022-10-12T20:26:36.656Z,15.02
2022-10-12T20:31:38.224Z,18.13
2022-10-12T20:36:39.779Z,14.10
2022-10-12T20:41:41.408Z,16.63
2022-10-12T20:46:45.635Z,15.43
2022-10-12T20:51:47.314Z,18.58
2022-10-12T20:56:51.935Z,17.27
2022-10-12T21:01:53.465Z,16.50
2022-10-12T21:06:55.218Z,18.58
2022-10-12T21:11:56.725Z,26.30
2022-10-12T21:17:00.354Z,19.20
2022-10-12T21:22:01.863Z,19.88
2022-10-12T21:27:04.723Z,19.30
2022-10-12T21:32:06.277Z,17.92
2022-10-12T21:37:07.795Z,17.42
2022-10-12T21:42:09.346Z,16.00
2022-10-12T21:47:13.854Z,17.55
2022-10-12T21:52:19.151Z,16.42
2022-10-12T21:57:20.928Z,18.02
2022-10-12T22:02:22.836Z,17.75
2022-10-12T22:07:24.371Z,16.92
2022-10-12T22:12:26.043Z,17.90
2022-10-12T22:17:27.615Z,16.90
2022-10-12T22:22:29.209Z,18.27
2022-10-12T22:27:30.744Z,17.52
2022-10-12T22:32:32.312Z,17.08
2022-10-12T22:37:33.846Z,17.15
2022-10-12T22:42:35.381Z,15.18
2022-10-12T22:47:39.164Z,15.32
2022-10-12T22:52:40.657Z,14.55
2022-10-12T22:57:42.193Z,14.88
2022-10-12T23:02:43.703Z,14.45
2022-10-12T23:07:45.282Z,16.60
2022-10-12T23:12:46.846Z,15.98
2022-10-12T23:17:48.450Z,13.82
2022-10-12T23:22:49.990Z,15.52
2022-10-12T23:27:51.588Z,15.20
2022-10-12T23:32:53.090Z,16.60
2022-10-12T23:37:55.030Z,17.13
2022-10-12T23:42:56.582Z,17.58
2022-10-12T23:47:58.101Z,16.13
2022-10-12T23:52:59.612Z,15.98
2022-10-12T23:58:01.546Z,16.30
